Albany, NY (12205)

7:06 AM EST en Noviembre 28, 2014 (GMT -0500)
South Colonie - Cook Park Area | Change Station
CLOSE
Current Station
Estación meteorológica personal
Location: Colonie, NY
Altura: 318 ft
Estaciones meteorológicas cercanas

Alt 318 ft 42.71 °N, 73.84 °W | Updated 14 seconds ago

Mostly Cloudy
Muy nublado
26.1 ° F
Sensación térmica 26 ° F
N
0.0
Viento Variable Viento desde Norte
Gusts 0.0 mph

Hoy
Alta -- | Baja -- ° F
--% Posibilidad de precipitaciones
Ayer
Alta -- | Baja -- ° F
Precip. -- pul
7:02 AM 4:23 PM
Creciente, 39% visible
Presión 30.11 pul
Visibilidad 10.0 Millas
Nubes Baja 1000 ft
Muy nublado 4500 ft
Muy nublado 10000 ft
Muy nublado 15000 ft
Vientos helados 26 ° F
Punto de rocío 22 ° F
Humedad 84%
Precipitaciones 0.00 pul
Espesor de la nieve No disponible.
UV 0 de una escala de 12
Polen .10 de una escala de 12
Calidad del aire No disponible.
Flu Activity No disponible.
METAR KALB 281151Z 28009KT 10SM FEW010 BKN045 BKN100 BKN150 M03/M06 A3010 RMK AO2 SLP196 4/007 60000 70005 T10281061 11022 21044 53014

More Conditions Fewer Conditions

Presión 30.11 pul
Visibilidad 10.0 Millas
Nubes Baja 1000 ft
Muy nublado 4500 ft
Muy nublado 10000 ft
Muy nublado 15000 ft
Vientos helados 26 ° F
Punto de rocío 22 ° F
Humedad 84%
Precipitaciones 0.00 pul
Espesor de la nieve No disponible.
UV 0 de una escala de 12
Polen .10 de una escala de 12
Calidad del aire No disponible.
Flu Activity No disponible.
METAR KALB 281151Z 28009KT 10SM FEW010 BKN045 BKN100 BKN150 M03/M06 A3010 RMK AO2 SLP196 4/007 60000 70005 T10281061 11022 21044 53014

More Conditions Fewer Conditions

10-Day Weather Forecast

Almanac

Astronomía

Nov. 28, 2014 Salida Puesta
Hora real
Crepúsculo civil
Crepúsculo náutico
Crepúsculo astronómico
Luna
Horas de luz
Horas de luz
Tomorrow will be .
, % of the Moon is Illuminated

Extremos de hoy

Máximos del estado Bajos del estado

Community

WunderPhotos

Upload Photos

1,774,198 ¡fotos cargadas!

WunderBlogs® & News

Nearby

Calidad del aire

  Calidad del aire Índice AQ Contaminante
Not available.

Grosos de nieve

Estación Profundido Altura

Actividad de terremotos

Ciudad Distance Mag. Tiempo y dato
Magnitud mínima muestra es 2,5.

Temperaturas de aguas costeras

Lugar Temperatura

Estaciones meteorológicas cercanas